createdAt,value
2022-08-17T00:00:33.240Z,3.30
2022-08-17T00:02:42.791Z,3.40
2022-08-17T00:04:50.433Z,4.03
2022-08-17T00:06:53.955Z,3.80
2022-08-17T00:08:58.368Z,4.03
2022-08-17T00:11:02.088Z,3.13
2022-08-17T00:13:11.666Z,3.47
2022-08-17T00:15:15.806Z,3.70
2022-08-17T00:17:19.212Z,3.90
2022-08-17T00:19:24.194Z,3.50
2022-08-17T00:21:59.996Z,3.70
2022-08-17T00:23:50.969Z,3.90
2022-08-17T00:25:54.402Z,3.90
2022-08-17T00:27:57.239Z,3.90
2022-08-17T00:30:02.235Z,3.40
2022-08-17T00:33:12.571Z,3.50
2022-08-17T00:34:29.790Z,3.23
2022-08-17T00:36:34.700Z,3.70
2022-08-17T00:38:37.810Z,3.40
2022-08-17T00:40:44.750Z,3.60
2022-08-17T00:42:49.375Z,3.53
2022-08-17T00:44:52.375Z,3.33
2022-08-17T00:46:56.743Z,3.77
2022-08-17T00:49:00.526Z,3.37
2022-08-17T00:51:10.672Z,3.63
2022-08-17T00:53:15.932Z,3.40
2022-08-17T00:55:20.002Z,3.77
2022-08-17T00:57:27.207Z,3.80
2022-08-17T00:59:44.277Z,3.87
2022-08-17T01:01:50.653Z,3.80
2022-08-17T01:03:59.874Z,3.53
2022-08-17T01:06:06.599Z,3.93
2022-08-17T01:08:13.519Z,4.60
2022-08-17T01:10:58.995Z,5.57
2022-08-17T01:12:41.778Z,5.57
2022-08-17T01:14:47.266Z,8.10
2022-08-17T01:16:51.628Z,6.30
2022-08-17T01:18:59.752Z,6.27
2022-08-17T01:21:06.990Z,4.60
2022-08-17T01:23:11.682Z,3.80
2022-08-17T01:25:22.294Z,3.70
2022-08-17T01:27:26.613Z,4.00
2022-08-17T01:29:30.746Z,3.77
2022-08-17T01:31:38.243Z,3.90
2022-08-17T01:33:41.501Z,3.70
2022-08-17T01:35:44.312Z,3.83
2022-08-17T01:37:47.127Z,3.90
2022-08-17T01:39:54.893Z,3.50
2022-08-17T01:42:07.194Z,4.00
2022-08-17T01:44:10.816Z,3.80
2022-08-17T01:46:17.926Z,3.70
2022-08-17T01:48:21.773Z,3.73
2022-08-17T01:50:27.878Z,4.03
2022-08-17T01:52:30.670Z,3.70
2022-08-17T01:54:33.660Z,3.60
2022-08-17T01:56:42.621Z,3.80
2022-08-17T01:58:46.146Z,3.77
2022-08-17T02:01:00.852Z,3.67
2022-08-17T02:03:04.684Z,3.50
2022-08-17T02:05:09.133Z,3.80
2022-08-17T02:07:12.071Z,3.73
2022-08-17T02:09:16.887Z,3.40
2022-08-17T02:11:21.695Z,3.90
2022-08-17T02:13:29.627Z,3.67
2022-08-17T02:15:34.567Z,3.83
2022-08-17T02:17:37.339Z,3.60
2022-08-17T02:19:40.324Z,3.60
2022-08-17T02:21:45.266Z,3.70
2022-08-17T02:23:50.997Z,4.00
2022-08-17T02:25:55.909Z,3.70
2022-08-17T02:27:58.858Z,4.00
2022-08-17T02:30:03.413Z,4.10
2022-08-17T02:32:28.610Z,3.40
2022-08-17T02:34:32.371Z,4.07
2022-08-17T02:36:36.201Z,3.80
2022-08-17T02:38:39.777Z,3.90
2022-08-17T02:40:42.726Z,3.93
2022-08-17T02:42:48.298Z,4.23
2022-08-17T02:44:51.122Z,3.60
2022-08-17T02:46:55.548Z,3.80
2022-08-17T02:48:59.394Z,3.93
2022-08-17T02:51:02.338Z,3.67
2022-08-17T02:53:06.987Z,4.00
2022-08-17T02:55:14.367Z,3.83
2022-08-17T02:57:17.155Z,4.27
2022-08-17T02:59:19.937Z,3.73
2022-08-17T03:01:22.867Z,3.77
2022-08-17T03:03:27.049Z,3.83
2022-08-17T03:05:31.965Z,4.30
2022-08-17T03:07:34.719Z,3.60
2022-08-17T03:09:37.733Z,3.90
2022-08-17T03:11:40.470Z,3.80
2022-08-17T03:13:43.181Z,3.87
2022-08-17T03:15:47.955Z,4.00
2022-08-17T03:17:52.081Z,3.80
2022-08-17T03:19:56.200Z,4.00
2022-08-17T03:21:59.209Z,3.70
2022-08-17T03:24:01.954Z,4.20
2022-08-17T03:26:15.540Z,3.73
2022-08-17T03:28:18.993Z,4.00
2022-08-17T03:30:22.542Z,3.83
2022-08-17T03:32:25.545Z,3.80
2022-08-17T03:34:28.700Z,4.23
2022-08-17T03:36:32.822Z,4.10
2022-08-17T03:38:39.583Z,4.20
2022-08-17T03:40:56.648Z,4.63
2022-08-17T03:43:06.289Z,4.87
2022-08-17T03:45:15.507Z,4.67
2022-08-17T03:47:36.126Z,4.57
2022-08-17T03:49:56.410Z,5.23
2022-08-17T03:52:18.505Z,4.43
2022-08-17T03:54:39.031Z,4.43
2022-08-17T03:56:45.555Z,4.47
2022-08-17T03:58:48.921Z,4.43
2022-08-17T04:00:52.300Z,4.43
2022-08-17T04:02:55.546Z,4.37
2022-08-17T04:04:58.764Z,4.70
2022-08-17T04:07:02.900Z,4.43
2022-08-17T04:09:07.575Z,4.43
2022-08-17T04:11:11.144Z,4.73
2022-08-17T04:13:14.795Z,4.70
2022-08-17T04:15:19.195Z,4.40
2022-08-17T04:17:24.189Z,4.23
2022-08-17T04:19:27.310Z,4.67
2022-08-17T04:21:30.135Z,4.57
2022-08-17T04:23:36.523Z,4.50
2022-08-17T04:25:42.630Z,4.17
2022-08-17T04:27:45.359Z,4.20
2022-08-17T04:29:54.905Z,4.10
2022-08-17T04:31:59.018Z,4.17
2022-08-17T04:34:04.545Z,4.00
2022-08-17T04:36:09.102Z,4.23
2022-08-17T04:38:13.841Z,4.30
2022-08-17T04:40:36.190Z,4.27
2022-08-17T04:42:38.939Z,4.23
2022-08-17T04:44:42.081Z,4.73
2022-08-17T04:46:44.856Z,4.80
2022-08-17T04:48:50.009Z,4.50
2022-08-17T04:50:52.882Z,4.53
2022-08-17T04:52:55.974Z,4.67
2022-08-17T04:55:05.342Z,4.73
2022-08-17T04:57:09.574Z,4.50
2022-08-17T04:59:16.467Z,4.33
2022-08-17T05:01:24.565Z,5.00
2022-08-17T05:03:27.561Z,5.20
2022-08-17T05:05:32.749Z,6.00
2022-08-17T05:07:35.624Z,5.80
2022-08-17T05:09:38.346Z,5.53
2022-08-17T05:11:44.974Z,4.90
2022-08-17T05:13:51.004Z,4.53
2022-08-17T05:15:55.990Z,5.70
2022-08-17T05:17:59.022Z,5.67
2022-08-17T05:20:01.785Z,5.70
2022-08-17T05:22:05.900Z,5.33
2022-08-17T05:24:13.534Z,6.17
2022-08-17T05:26:31.693Z,6.17
2022-08-17T05:28:39.170Z,6.10
2022-08-17T05:30:45.133Z,6.00
2022-08-17T05:32:54.053Z,5.47
2022-08-17T05:35:00.276Z,6.23
2022-08-17T05:37:03.393Z,5.93
2022-08-17T05:39:06.615Z,5.50
2022-08-17T05:41:10.795Z,5.87
2022-08-17T05:43:16.277Z,5.47
2022-08-17T05:45:32.097Z,5.20
2022-08-17T05:47:47.307Z,5.07
2022-08-17T05:49:50.156Z,5.60
2022-08-17T05:52:10.504Z,5.83
2022-08-17T05:54:36.847Z,5.30
2022-08-17T05:57:07.573Z,5.30
2022-08-17T05:59:18.089Z,5.03
2022-08-17T06:01:41.554Z,5.07
2022-08-17T06:03:54.303Z,5.20
2022-08-17T06:06:10.362Z,4.53
2022-08-17T06:08:18.951Z,4.50
2022-08-17T06:10:30.407Z,5.00
2022-08-17T06:12:41.546Z,4.70
2022-08-17T06:15:01.422Z,5.13
2022-08-17T06:17:10.551Z,4.83
2022-08-17T06:19:18.433Z,4.70
2022-08-17T06:21:23.729Z,4.60
2022-08-17T06:23:37.003Z,4.57
2022-08-17T06:25:48.987Z,4.60
2022-08-17T06:27:56.666Z,4.30
2022-08-17T06:30:04.101Z,4.60
2022-08-17T06:32:12.654Z,3.90
2022-08-17T06:34:17.151Z,4.60
2022-08-17T06:36:36.295Z,3.80
2022-08-17T06:38:48.074Z,4.03
2022-08-17T06:41:00.058Z,4.20
2022-08-17T06:43:15.442Z,3.70
2022-08-17T06:45:25.074Z,3.43
2022-08-17T06:47:37.069Z,4.00
2022-08-17T06:49:55.212Z,3.80
2022-08-17T06:52:07.352Z,3.63
2022-08-17T06:54:17.787Z,3.30
2022-08-17T06:56:54.227Z,3.57
2022-08-17T06:58:57.637Z,3.47
2022-08-17T07:01:06.704Z,3.40
2022-08-17T07:03:20.937Z,3.53
2022-08-17T07:05:31.782Z,3.60
2022-08-17T07:07:56.729Z,6.37
2022-08-17T07:10:01.899Z,3.90
2022-08-17T07:12:12.194Z,3.97
2022-08-17T07:14:28.133Z,3.20
2022-08-17T07:16:36.316Z,3.10
2022-08-17T07:18:39.091Z,3.33
2022-08-17T07:20:46.833Z,2.63
2022-08-17T07:22:59.996Z,2.70
2022-08-17T07:25:09.078Z,3.10
2022-08-17T07:27:20.845Z,3.08
2022-08-17T07:29:23.717Z,3.35
2022-08-17T07:31:30.467Z,2.53
2022-08-17T07:33:39.338Z,2.60
2022-08-17T07:35:44.624Z,2.85
2022-08-17T07:37:53.438Z,2.70
2022-08-17T07:40:15.609Z,2.50
2022-08-17T07:42:19.854Z,2.40
2022-08-17T07:44:22.655Z,2.30
2022-08-17T07:46:53.108Z,2.42
2022-08-17T07:48:58.624Z,2.40
2022-08-17T07:51:04.129Z,2.47
2022-08-17T07:53:18.272Z,2.40
2022-08-17T07:55:30.561Z,2.40
2022-08-17T07:57:35.777Z,2.50
2022-08-17T07:59:40.769Z,2.60
2022-08-17T08:02:00.789Z,2.60
2022-08-17T08:04:19.498Z,2.60
2022-08-17T08:06:27.382Z,3.05
2022-08-17T08:08:34.078Z,2.60
2022-08-17T08:10:42.546Z,2.80
2022-08-17T08:12:53.739Z,2.70
2022-08-17T08:14:59.182Z,2.40
2022-08-17T08:17:06.412Z,2.80
2022-08-17T08:19:20.932Z,2.95
2022-08-17T08:21:33.970Z,2.80
2022-08-17T08:23:47.350Z,2.85
2022-08-17T08:26:04.529Z,2.80
2022-08-17T08:28:17.470Z,2.58
2022-08-17T08:30:22.227Z,2.60
2022-08-17T08:32:36.870Z,2.65
2022-08-17T08:35:01.174Z,2.90
2022-08-17T08:37:22.574Z,2.53
2022-08-17T08:39:35.992Z,2.90
2022-08-17T08:41:45.500Z,2.80
2022-08-17T08:44:00.738Z,2.80
2022-08-17T08:46:13.063Z,2.58
2022-08-17T08:48:53.934Z,2.55
2022-08-17T08:50:55.374Z,2.30
2022-08-17T08:53:15.553Z,1.92
2022-08-17T08:55:25.638Z,2.10
2022-08-17T08:57:34.824Z,2.35
2022-08-17T08:59:57.729Z,2.25
2022-08-17T09:02:12.707Z,2.20
2022-08-17T09:04:27.502Z,2.42
2022-08-17T09:06:44.977Z,2.22
2022-08-17T09:09:02.290Z,2.50
2022-08-17T09:11:09.413Z,2.17
2022-08-17T09:13:22.962Z,2.33
2022-08-17T09:15:28.327Z,2.33
2022-08-17T09:17:40.339Z,2.05
2022-08-17T09:19:46.197Z,2.33
2022-08-17T09:21:53.575Z,2.47
2022-08-17T09:24:05.659Z,2.40
2022-08-17T09:26:14.501Z,2.45
2022-08-17T09:28:20.781Z,2.30
2022-08-17T09:30:24.930Z,2.10
2022-08-17T09:32:35.001Z,2.45
2022-08-17T09:34:52.599Z,1.95
2022-08-17T09:37:07.605Z,2.03
2022-08-17T09:39:17.854Z,2.00
2022-08-17T09:41:25.915Z,2.30
2022-08-17T09:43:35.029Z,2.30
2022-08-17T09:45:43.504Z,2.42
2022-08-17T09:47:51.512Z,2.13
2022-08-17T09:49:58.653Z,1.90
2022-08-17T09:52:06.712Z,2.17
2022-08-17T09:54:38.054Z,2.10
2022-08-17T09:57:05.993Z,2.20
2022-08-17T09:59:38.421Z,2.22
2022-08-17T10:01:47.811Z,2.58
2022-08-17T10:04:14.195Z,2.30
2022-08-17T10:06:22.282Z,1.88
2022-08-17T10:08:36.803Z,2.00
2022-08-17T10:10:56.167Z,2.10
2022-08-17T10:13:05.290Z,2.10
2022-08-17T10:15:22.392Z,2.13
2022-08-17T10:17:33.991Z,2.10
2022-08-17T10:19:44.116Z,2.00
2022-08-17T10:22:14.546Z,2.10
2022-08-17T10:24:40.649Z,1.98
2022-08-17T10:27:11.431Z,2.40
2022-08-17T10:29:18.368Z,2.10
2022-08-17T10:31:35.780Z,1.98
2022-08-17T10:33:50.993Z,1.80
2022-08-17T10:36:01.205Z,2.00
2022-08-17T10:38:31.405Z,2.08
2022-08-17T10:40:45.291Z,2.50
2022-08-17T10:42:52.780Z,2.10
2022-08-17T10:45:03.318Z,1.80
2022-08-17T10:47:09.787Z,1.80
2022-08-17T10:49:26.056Z,2.10
2022-08-17T10:51:37.955Z,2.20
2022-08-17T10:53:58.782Z,1.90
2022-08-17T10:56:23.145Z,2.10
2022-08-17T10:58:39.170Z,1.90
2022-08-17T11:01:11.386Z,2.20
2022-08-17T11:03:21.049Z,1.90
2022-08-17T11:05:50.238Z,2.10
2022-08-17T11:08:18.413Z,2.00
2022-08-17T11:10:42.177Z,1.80
2022-08-17T11:12:55.366Z,2.05
2022-08-17T11:15:14.197Z,1.98
2022-08-17T11:17:32.915Z,2.03
2022-08-17T11:20:00.038Z,1.83
2022-08-17T11:22:33.953Z,1.80
2022-08-17T11:24:40.062Z,1.98
2022-08-17T11:27:00.256Z,2.28
2022-08-17T11:29:08.921Z,1.90
2022-08-17T11:31:39.016Z,1.98
2022-08-17T11:34:05.974Z,2.42
2022-08-17T11:36:20.575Z,2.70
2022-08-17T11:38:33.520Z,2.38
2022-08-17T11:40:55.095Z,2.10
2022-08-17T11:43:15.772Z,1.83
2022-08-17T11:45:40.086Z,2.10
2022-08-17T11:51:01.435Z,2.17
2022-08-17T11:53:04.527Z,2.13
2022-08-17T11:55:33.940Z,1.90
2022-08-17T11:58:07.359Z,2.17
2022-08-17T12:00:56.317Z,2.08
2022-08-17T12:03:23.553Z,2.00
2022-08-17T12:05:30.761Z,1.80
2022-08-17T12:07:34.749Z,2.10
2022-08-17T12:09:41.893Z,1.90
2022-08-17T12:11:58.720Z,2.08
2022-08-17T12:14:22.453Z,2.03
2022-08-17T12:16:29.801Z,1.90
2022-08-17T12:18:37.559Z,1.80
2022-08-17T12:20:45.938Z,1.80
2022-08-17T12:22:56.461Z,2.30
2022-08-17T12:25:04.881Z,1.90
2022-08-17T12:27:10.656Z,2.05
2022-08-17T12:29:35.877Z,2.15
2022-08-17T12:31:45.203Z,2.13
2022-08-17T12:33:51.709Z,1.80
2022-08-17T12:35:59.639Z,1.80
2022-08-17T12:38:03.453Z,1.80
2022-08-17T12:40:17.604Z,1.70
2022-08-17T12:42:26.369Z,1.60
2022-08-17T12:44:31.082Z,1.77
2022-08-17T12:46:45.392Z,1.70
2022-08-17T12:48:58.859Z,1.60
2022-08-17T12:51:04.567Z,1.90
2022-08-17T12:53:13.509Z,2.10
2022-08-17T12:55:22.346Z,1.80
2022-08-17T12:57:33.189Z,1.63
2022-08-17T12:59:42.360Z,1.90
2022-08-17T13:01:46.141Z,1.90
2022-08-17T13:03:57.291Z,1.85
2022-08-17T13:06:03.492Z,1.98
2022-08-17T13:08:15.380Z,1.90
2022-08-17T13:10:22.749Z,1.70
2022-08-17T13:12:30.559Z,1.73
2022-08-17T13:14:33.912Z,1.90
2022-08-17T13:16:37.623Z,2.17
2022-08-17T13:18:44.373Z,2.00
2022-08-17T13:20:54.258Z,2.10
2022-08-17T13:22:59.435Z,1.73
2022-08-17T13:25:06.277Z,1.85
2022-08-17T13:27:13.414Z,1.85
2022-08-17T13:29:24.082Z,2.00
2022-08-17T13:31:39.402Z,1.80
2022-08-17T13:34:13.951Z,2.17
2022-08-17T13:36:32.072Z,2.03
2022-08-17T13:38:45.630Z,1.80
2022-08-17T13:40:51.847Z,2.08
2022-08-17T13:42:56.115Z,1.90
2022-08-17T13:44:59.137Z,1.98
2022-08-17T13:47:03.063Z,2.00
2022-08-17T13:49:11.672Z,1.80
2022-08-17T13:51:31.974Z,2.03
2022-08-17T13:53:51.159Z,1.60
2022-08-17T13:55:56.897Z,1.77
2022-08-17T13:58:03.888Z,1.75
2022-08-17T14:00:16.709Z,1.90
2022-08-17T14:02:20.951Z,1.90
2022-08-17T14:04:25.617Z,2.20
2022-08-17T14:06:52.367Z,1.90
2022-08-17T14:08:57.078Z,1.88
2022-08-17T14:11:00.000Z,1.70
2022-08-17T14:13:02.743Z,1.70
2022-08-17T14:15:06.539Z,1.80
2022-08-17T14:17:09.435Z,2.00
2022-08-17T14:19:13.594Z,1.80
2022-08-17T14:21:17.485Z,2.08
2022-08-17T14:23:21.806Z,1.90
2022-08-17T14:25:26.877Z,1.90
2022-08-17T14:27:31.834Z,1.90
2022-08-17T14:29:35.080Z,1.70
2022-08-17T14:31:38.955Z,1.77
2022-08-17T14:33:42.559Z,1.80
2022-08-17T14:35:45.343Z,2.35
2022-08-17T14:37:48.055Z,1.83
2022-08-17T14:39:53.836Z,1.90
2022-08-17T14:41:58.301Z,1.75
2022-08-17T14:44:01.030Z,2.00
2022-08-17T14:46:03.834Z,2.17
2022-08-17T14:48:07.871Z,2.20
2022-08-17T14:50:19.548Z,2.00
2022-08-17T14:52:22.583Z,1.80
2022-08-17T14:54:34.200Z,2.10
2022-08-17T14:56:38.852Z,2.28
2022-08-17T14:58:42.482Z,2.08
2022-08-17T15:00:45.298Z,2.05
2022-08-17T15:02:53.689Z,2.17
2022-08-17T15:05:01.943Z,2.03
2022-08-17T15:07:05.202Z,1.98
2022-08-17T15:09:07.967Z,2.08
2022-08-17T15:11:14.297Z,2.40
2022-08-17T15:13:21.079Z,2.17
2022-08-17T15:15:24.653Z,2.40
2022-08-17T15:17:43.954Z,2.13
2022-08-17T15:19:48.096Z,2.30
2022-08-17T15:21:50.863Z,2.50
2022-08-17T15:23:53.582Z,2.47
2022-08-17T15:25:56.368Z,3.17
2022-08-17T15:27:59.465Z,2.85
2022-08-17T15:30:04.890Z,3.13
2022-08-17T15:32:10.112Z,3.15
2022-08-17T15:34:13.667Z,2.60
2022-08-17T15:36:16.577Z,3.50
2022-08-17T15:38:19.553Z,3.50
2022-08-17T15:40:22.381Z,2.90
2022-08-17T15:42:25.531Z,2.90
2022-08-17T15:44:32.343Z,2.53
2022-08-17T15:46:37.720Z,2.70
2022-08-17T15:48:43.841Z,2.80
2022-08-17T15:50:46.603Z,2.72
2022-08-17T15:52:56.766Z,2.90
2022-08-17T15:55:02.634Z,2.65
2022-08-17T15:57:05.473Z,2.90
2022-08-17T15:59:08.285Z,2.60
2022-08-17T16:01:14.889Z,2.40
2022-08-17T16:03:56.118Z,2.50
2022-08-17T16:05:46.301Z,2.70
2022-08-17T16:07:49.768Z,2.67
2022-08-17T16:09:52.703Z,2.65
2022-08-17T16:11:56.327Z,2.70
2022-08-17T16:13:59.446Z,2.60
2022-08-17T16:16:02.305Z,2.50
2022-08-17T16:18:06.021Z,2.63
2022-08-17T16:20:20.048Z,2.63
2022-08-17T16:22:32.460Z,2.47
2022-08-17T16:24:36.711Z,2.47
2022-08-17T16:26:39.878Z,2.60
2022-08-17T16:28:42.752Z,2.40
2022-08-17T16:30:45.566Z,2.40
2022-08-17T16:32:51.353Z,2.53
2022-08-17T16:34:54.484Z,2.45
2022-08-17T16:36:58.570Z,2.45
2022-08-17T16:39:01.471Z,2.80
2022-08-17T16:41:04.558Z,2.10
2022-08-17T16:43:10.452Z,2.45
2022-08-17T16:45:18.400Z,2.50
2022-08-17T16:47:21.627Z,2.53
2022-08-17T16:49:35.244Z,2.60
2022-08-17T16:51:40.247Z,2.38
2022-08-17T16:53:44.502Z,2.30
2022-08-17T16:55:51.867Z,2.40
2022-08-17T16:57:54.621Z,2.45
2022-08-17T16:59:58.459Z,2.70
2022-08-17T17:02:04.945Z,2.63
2022-08-17T17:04:11.326Z,2.40
2022-08-17T17:06:22.434Z,2.40
2022-08-17T17:08:30.354Z,2.63
2022-08-17T17:10:48.558Z,2.45
2022-08-17T17:13:02.041Z,2.50
2022-08-17T17:15:06.898Z,2.60
2022-08-17T17:17:15.827Z,2.70
2022-08-17T17:19:34.283Z,2.83
2022-08-17T17:21:51.738Z,2.78
2022-08-17T17:23:59.746Z,2.60
2022-08-17T17:26:15.545Z,2.60
2022-08-17T17:28:29.302Z,2.45
2022-08-17T17:30:39.079Z,2.50
2022-08-17T17:32:49.138Z,2.70
2022-08-17T17:34:56.789Z,2.90
2022-08-17T17:37:03.734Z,2.78
2022-08-17T17:39:11.255Z,2.80
2022-08-17T17:41:25.892Z,2.60
2022-08-17T17:43:45.106Z,2.58
2022-08-17T17:45:53.800Z,2.20
2022-08-17T17:47:56.666Z,2.50
2022-08-17T17:50:02.330Z,2.70
2022-08-17T17:52:15.516Z,2.55
2022-08-17T17:54:33.115Z,2.70
2022-08-17T17:56:44.926Z,2.60
2022-08-17T17:58:53.595Z,2.72
2022-08-17T18:01:10.842Z,2.88
2022-08-17T18:03:34.599Z,5.25
2022-08-17T18:05:48.179Z,4.45
2022-08-17T18:07:56.696Z,3.30
2022-08-17T18:10:19.854Z,2.85
2022-08-17T18:12:41.302Z,3.20
2022-08-17T18:15:00.212Z,8.25
2022-08-17T18:17:03.121Z,3.83
2022-08-17T18:19:06.791Z,5.22
2022-08-17T18:21:16.660Z,4.60
2022-08-17T18:23:23.093Z,3.78
2022-08-17T18:25:43.590Z,4.18
2022-08-17T18:27:52.925Z,3.17
2022-08-17T18:29:57.785Z,3.00
2022-08-17T18:32:20.228Z,3.10
2022-08-17T18:34:46.609Z,2.70
2022-08-17T18:36:49.657Z,3.42
2022-08-17T18:39:10.954Z,3.33
2022-08-17T18:41:23.652Z,7.95
2022-08-17T18:43:44.340Z,4.05
2022-08-17T18:45:56.333Z,3.10
2022-08-17T18:47:59.078Z,3.13
2022-08-17T18:50:21.812Z,3.72
2022-08-17T18:52:28.976Z,5.97
2022-08-17T18:54:32.278Z,6.80
2022-08-17T18:56:36.452Z,7.03
2022-08-17T18:58:41.058Z,6.25
2022-08-17T19:00:46.540Z,6.07
2022-08-17T19:02:52.853Z,4.32
2022-08-17T19:05:03.665Z,6.00
2022-08-17T19:07:09.996Z,5.97
2022-08-17T19:09:33.633Z,5.63
2022-08-17T19:11:37.054Z,5.22
2022-08-17T19:13:46.312Z,4.50
2022-08-17T19:16:11.566Z,4.63
2022-08-17T19:18:20.017Z,4.43
2022-08-17T19:20:29.497Z,4.47
2022-08-17T19:22:45.315Z,3.90
2022-08-17T19:24:51.046Z,5.30
2022-08-17T19:27:14.280Z,6.10
2022-08-17T19:29:22.661Z,4.45
2022-08-17T19:31:28.437Z,5.07
2022-08-17T19:33:32.363Z,4.55
2022-08-17T19:35:43.509Z,3.40
2022-08-17T19:37:58.575Z,4.60
2022-08-17T19:40:29.318Z,6.00
2022-08-17T19:42:47.439Z,6.78
2022-08-17T19:45:01.490Z,7.38
2022-08-17T19:47:30.485Z,5.35
2022-08-17T19:49:49.806Z,5.70
2022-08-17T19:51:56.939Z,5.97
2022-08-17T19:54:06.619Z,7.40
2022-08-17T19:56:20.609Z,5.53
2022-08-17T19:58:32.084Z,5.65
2022-08-17T20:00:46.963Z,6.80
2022-08-17T20:02:58.461Z,5.15
2022-08-17T20:05:06.137Z,4.93
2022-08-17T20:07:14.373Z,3.83
2022-08-17T20:09:25.328Z,3.90
2022-08-17T20:11:42.801Z,4.63
2022-08-17T20:13:50.566Z,5.07
2022-08-17T20:15:54.788Z,6.40
2022-08-17T20:18:01.991Z,4.55
2022-08-17T20:20:19.636Z,3.35
2022-08-17T20:22:30.687Z,2.92
2022-08-17T20:24:45.508Z,2.85
2022-08-17T20:26:58.579Z,3.05
2022-08-17T20:29:36.821Z,3.22
2022-08-17T20:31:46.615Z,3.00
2022-08-17T20:33:49.866Z,3.35
2022-08-17T20:36:16.978Z,3.50
2022-08-17T20:38:40.790Z,3.30
2022-08-17T20:41:11.931Z,3.10
2022-08-17T20:43:43.971Z,3.20
2022-08-17T20:46:02.186Z,2.90
2022-08-17T20:48:36.143Z,3.28
2022-08-17T20:50:44.401Z,10.10
2022-08-17T20:52:53.076Z,3.50
2022-08-17T20:54:57.539Z,10.68
2022-08-17T20:57:01.367Z,5.50
2022-08-17T20:59:05.938Z,4.10
2022-08-17T21:01:12.802Z,4.32
2022-08-17T21:03:51.227Z,3.95
2022-08-17T21:05:59.875Z,3.25
2022-08-17T21:08:14.814Z,3.05
2022-08-17T21:10:28.916Z,3.00
2022-08-17T21:12:43.011Z,3.15
2022-08-17T21:14:58.577Z,3.30
2022-08-17T21:17:17.674Z,2.90
2022-08-17T21:19:48.985Z,3.40
2022-08-17T21:22:09.320Z,3.30
2022-08-17T21:24:24.702Z,2.90
2022-08-17T21:26:50.276Z,2.88
2022-08-17T21:29:29.904Z,3.05
2022-08-17T21:31:34.887Z,3.05
2022-08-17T21:33:39.975Z,3.15
2022-08-17T21:35:51.304Z,3.20
2022-08-17T21:38:03.594Z,3.10
2022-08-17T21:40:24.382Z,2.72
2022-08-17T21:42:31.135Z,2.65
2022-08-17T21:44:37.586Z,3.10
2022-08-17T21:46:46.516Z,2.80
2022-08-17T21:48:54.304Z,3.20
2022-08-17T21:51:03.613Z,2.97
2022-08-17T21:53:06.673Z,2.80
2022-08-17T21:55:21.394Z,3.13
2022-08-17T21:57:27.435Z,3.20
2022-08-17T21:59:34.616Z,3.20
2022-08-17T22:01:40.290Z,3.27
2022-08-17T22:03:43.301Z,3.13
2022-08-17T22:05:48.008Z,3.10
2022-08-17T22:08:02.309Z,3.30
2022-08-17T22:10:07.032Z,3.00
2022-08-17T22:12:11.806Z,3.57
2022-08-17T22:14:16.942Z,2.83
2022-08-17T22:16:29.406Z,2.93
2022-08-17T22:18:33.325Z,2.53
2022-08-17T22:20:36.147Z,3.50
2022-08-17T22:23:14.526Z,2.90
2022-08-17T22:25:23.915Z,3.20
2022-08-17T22:27:45.904Z,3.23
2022-08-17T22:29:57.417Z,2.87
2022-08-17T22:32:00.650Z,3.00
2022-08-17T22:34:13.341Z,3.10
2022-08-17T22:36:29.006Z,2.60
2022-08-17T22:38:33.091Z,3.37
2022-08-17T22:40:37.188Z,3.13
2022-08-17T22:42:47.347Z,3.97
2022-08-17T22:44:52.673Z,5.63
2022-08-17T22:47:02.080Z,4.53
2022-08-17T22:49:04.949Z,3.60
2022-08-17T22:51:12.766Z,3.53
2022-08-17T22:53:38.049Z,3.23
2022-08-17T22:56:08.094Z,3.20
2022-08-17T22:58:32.618Z,3.90
2022-08-17T23:00:40.627Z,3.47
2022-08-17T23:03:20.936Z,3.47
2022-08-17T23:05:25.477Z,3.90
2022-08-17T23:07:28.220Z,3.23
2022-08-17T23:09:30.948Z,3.40
2022-08-17T23:11:49.076Z,3.00
2022-08-17T23:13:53.763Z,3.10
2022-08-17T23:15:56.528Z,3.40
2022-08-17T23:18:04.706Z,2.97
2022-08-17T23:20:11.924Z,3.40
2022-08-17T23:22:14.760Z,3.00
2022-08-17T23:24:22.302Z,3.10
2022-08-17T23:26:27.653Z,3.00
2022-08-17T23:28:31.691Z,3.00
2022-08-17T23:30:41.049Z,3.20
2022-08-17T23:32:53.851Z,3.07
2022-08-17T23:34:59.147Z,3.30
2022-08-17T23:37:02.162Z,3.37
2022-08-17T23:39:06.158Z,3.50
2022-08-17T23:41:13.005Z,3.27
2022-08-17T23:43:24.393Z,3.20
2022-08-17T23:45:29.859Z,3.00
2022-08-17T23:47:32.561Z,3.13
2022-08-17T23:49:36.161Z,3.00
2022-08-17T23:51:42.735Z,2.90
2022-08-17T23:53:48.082Z,3.00
2022-08-17T23:56:09.856Z,2.90
2022-08-17T23:58:13.303Z,3.30
